Time;durP1;ratioP1;P1;durP2;ratioP2;P2;SDS_P1;SDS_P2;PMS_P1;PMS_P2;Temp;Humidity;BMP_temperature;BMP_pressure;BME280_temperature;BME280_humidity;BME280_pressure;Samples;Min_cycle;Max_cycle;Signal;HPM_P1;HPM_P2
2022/04/15 00:02:24;;;;;;;12.03;6.83;;;;;;;10.97;100.00;101318.38;5182928;28;20283;-77
2022/04/15 00:04:56;;;;;;;12.43;6.97;;;;;;;11.01;100.00;101325.28;5183284;28;20284;-77
2022/04/15 00:07:27;;;;;;;14.55;7.13;;;;;;;10.85;100.00;101318.72;5191516;28;20433;-77
2022/04/15 00:09:57;;;;;;;15.07;7.43;;;;;;;10.86;100.00;101325.66;5182348;28;20038;-77
2022/04/15 00:12:28;;;;;;;12.40;8.83;;;;;;;10.86;100.00;101325.66;5185652;28;20033;-77
2022/04/15 00:14:58;;;;;;;12.10;8.55;;;;;;;10.84;100.00;101322.22;5189887;28;20685;-77
2022/04/15 00:17:29;;;;;;;14.07;8.23;;;;;;;10.90;100.00;101324.69;5175335;28;20112;-76
2022/04/15 00:19:59;;;;;;;12.38;7.72;;;;;;;11.07;100.00;101318.97;5177594;28;20359;-77
2022/04/15 00:22:29;;;;;;;14.32;7.20;;;;;;;11.04;100.00;101321.69;5163975;28;20450;-76
2022/04/15 00:24:59;;;;;;;11.35;6.90;;;;;;;10.91;100.00;101327.28;5182235;28;20026;-76
2022/04/15 00:27:30;;;;;;;13.50;7.20;;;;;;;10.93;100.00;101332.44;5181444;28;20022;-77
2022/04/15 00:30:00;;;;;;;13.35;7.32;;;;;;;10.86;100.00;101326.50;5181494;28;20339;-77
2022/04/15 00:32:30;;;;;;;10.38;6.95;;;;;;;10.76;100.00;101334.63;5181482;28;20112;-76
2022/04/15 00:35:01;;;;;;;15.27;8.35;;;;;;;10.84;100.00;101343.16;5182489;28;20443;-77
2022/04/15 00:37:32;;;;;;;15.65;6.90;;;;;;;10.73;100.00;101340.78;5190960;28;20064;-76
2022/04/15 00:40:04;;;;;;;11.57;6.88;;;;;;;10.77;100.00;101341.56;5181857;28;20025;-76
2022/04/15 00:42:35;;;;;;;13.63;6.80;;;;;;;10.56;100.00;101332.50;5184627;28;20029;-77
2022/04/15 00:45:09;;;;;;;15.90;7.15;;;;;;;10.34;100.00;101340.84;5185543;28;20041;-76
2022/04/15 00:47:47;;;;;;;12.80;5.90;;;;;;;10.28;100.00;101341.84;5181402;28;20391;-77
2022/04/15 00:50:20;;;;;;;11.73;6.35;;;;;;;10.32;100.00;101347.88;5181246;28;20033;-76
2022/04/15 00:52:52;;;;;;;12.57;6.65;;;;;;;10.29;100.00;101359.22;5176058;28;20097;-76
2022/04/15 00:55:23;;;;;;;13.10;6.10;;;;;;;10.01;100.00;101354.59;5181229;28;20077;-76
2022/04/15 00:57:57;;;;;;;13.07;5.78;;;;;;;9.89;100.00;101358.34;5181428;28;20128;-76
2022/04/15 01:00:29;;;;;;;10.73;5.85;;;;;;;9.84;100.00;101356.69;5181106;28;20104;-76
2022/04/15 01:03:02;;;;;;;10.85;5.07;;;;;;;9.76;100.00;101359.47;5180857;28;20022;-76
2022/04/15 01:05:32;;;;;;;10.07;5.47;;;;;;;9.78;100.00;101364.63;5166977;28;20025;-76
2022/04/15 01:08:04;;;;;;;11.00;5.32;;;;;;;9.63;100.00;101359.75;5187835;28;20092;-76
2022/04/15 01:10:36;;;;;;;18.92;5.35;;;;;;;9.63;100.00;101362.34;5181138;28;20487;-76
2022/04/15 01:13:07;;;;;;;12.02;5.25;;;;;;;9.63;100.00;101370.19;5185835;28;20025;-76
2022/04/15 01:15:37;;;;;;;11.05;5.65;;;;;;;9.58;100.00;101365.03;5185926;28;20490;-77
2022/04/15 01:18:08;;;;;;;9.18;4.63;;;;;;;9.52;100.00;101366.91;5180790;28;20034;-76
2022/04/15 01:20:40;;;;;;;10.98;5.50;;;;;;;9.58;100.00;101369.38;5180624;28;20029;-76
2022/04/15 01:23:11;;;;;;;10.80;5.35;;;;;;;9.59;100.00;101368.50;5180577;28;20109;-76
2022/04/15 01:25:42;;;;;;;9.20;5.65;;;;;;;9.50;100.00;101369.53;5180077;28;20105;-76
2022/04/15 01:28:16;;;;;;;9.98;5.38;;;;;;;9.45;100.00;101373.97;5180579;28;20041;-76
2022/04/15 01:30:47;;;;;;;12.75;6.13;;;;;;;9.51;100.00;101380.84;5180239;28;20018;-76
2022/04/15 01:33:18;;;;;;;12.10;5.72;;;;;;;9.32;100.00;101384.66;5180712;28;20026;-76
2022/04/15 01:35:48;;;;;;;10.77;5.75;;;;;;;9.32;100.00;101385.50;5184518;28;20030;-76
2022/04/15 01:38:20;;;;;;;9.65;6.05;;;;;;;8.99;100.00;101385.22;5187032;28;20501;-76
2022/04/15 01:40:52;;;;;;;10.75;5.80;;;;;;;9.07;100.00;101393.78;5158624;28;20116;-76
2022/04/15 01:43:22;;;;;;;10.05;6.22;;;;;;;9.04;100.00;101388.63;5187131;28;20040;-76
2022/04/15 01:45:52;;;;;;;11.85;6.28;;;;;;;9.06;100.00;101380.78;5183685;28;20028;-76
2022/04/15 01:48:22;;;;;;;10.18;6.32;;;;;;;9.13;100.00;101379.78;5180979;28;20101;-77
2022/04/15 01:50:53;;;;;;;9.23;5.70;;;;;;;9.09;100.00;101381.56;5180212;28;20142;-76
2022/04/15 01:53:23;;;;;;;10.30;5.55;;;;;;;8.93;100.00;101390.53;5180273;28;20027;-76
2022/04/15 01:55:53;;;;;;;9.20;5.60;;;;;;;9.13;100.00;101385.88;5180796;28;20052;-76
2022/04/15 01:58:23;;;;;;;12.50;5.53;;;;;;;9.00;100.00;101391.28;5180818;28;20479;-77
2022/04/15 02:00:54;;;;;;;8.75;4.85;;;;;;;9.03;100.00;101392.09;5180457;28;20599;-78
2022/04/15 02:03:24;;;;;;;12.27;5.85;;;;;;;8.97;100.00;101389.63;5171525;28;20030;-77
2022/04/15 02:05:54;;;;;;;7.85;4.80;;;;;;;8.89;100.00;101391.47;5184321;28;20392;-77
2022/04/15 02:08:24;;;;;;;8.48;4.68;;;;;;;8.95;100.00;101398.34;5186909;28;20424;-77
2022/04/15 02:10:55;;;;;;;6.32;4.50;;;;;;;8.93;100.00;101394.88;5180501;28;20022;-76
2022/04/15 02:13:25;;;;;;;7.70;4.45;;;;;;;8.95;100.00;101394.00;5187605;28;20079;-76
2022/04/15 02:15:55;;;;;;;7.78;4.25;;;;;;;8.91;100.00;101383.63;5184679;28;20290;-76
2022/04/15 02:18:26;;;;;;;6.35;3.92;;;;;;;8.90;100.00;101390.56;5180758;28;20029;-76
2022/04/15 02:20:56;;;;;;;6.72;3.67;;;;;;;8.83;100.00;101386.34;5180623;28;20072;-76
2022/04/15 02:23:26;;;;;;;7.20;3.67;;;;;;;8.95;100.00;101393.13;5181128;28;20483;-77
2022/04/15 02:25:56;;;;;;;8.10;3.97;;;;;;;8.92;100.00;101388.81;5180002;28;20037;-78
2022/04/15 02:28:27;;;;;;;6.43;3.80;;;;;;;9.02;100.00;101387.78;5181629;28;20036;-79
2022/04/15 02:30:57;;;;;;;7.35;3.75;;;;;;;9.00;100.00;101392.16;5181097;28;20272;-79
2022/04/15 02:33:27;;;;;;;5.35;3.33;;;;;;;8.99;100.00;101385.22;5182103;28;20060;-78
2022/04/15 02:35:57;;;;;;;8.30;3.55;;;;;;;8.96;100.00;101385.28;5185950;28;20040;-79
2022/04/15 02:38:28;;;;;;;5.40;3.30;;;;;;;9.09;100.00;101392.00;5186882;28;20511;-78
2022/04/15 02:40:59;;;;;;;7.13;3.58;;;;;;;9.06;100.00;101391.22;5180722;28;20301;-79
2022/04/15 02:43:33;;;;;;;5.13;3.22;;;;;;;9.22;100.00;101385.69;5188387;28;20037;-78
2022/04/15 02:46:06;;;;;;;7.57;3.50;;;;;;;9.05;99.57;101382.50;5184398;28;20092;-79
2022/04/15 02:48:37;;;;;;;5.68;3.53;;;;;;;9.03;100.00;101391.25;5181555;28;20030;-78
2022/04/15 02:51:07;;;;;;;7.72;3.92;;;;;;;9.10;100.00;101396.31;5181097;28;20049;-79
2022/04/15 02:53:38;;;;;;;6.60;3.60;;;;;;;9.20;98.68;101390.97;5181102;28;20037;-79
2022/04/15 02:56:08;;;;;;;6.25;3.88;;;;;;;9.19;99.46;101388.38;5181335;28;20450;-78
2022/04/15 02:58:38;;;;;;;4.65;3.10;;;;;;;9.09;99.11;101394.59;5181273;28;20013;-78
2022/04/15 03:01:08;;;;;;;7.65;3.28;;;;;;;9.14;98.83;101390.19;5181080;28;20033;-78
2022/04/15 03:03:39;;;;;;;6.40;3.47;;;;;;;9.23;99.19;101392.63;5181710;28;20675;-78
2022/04/15 03:06:09;;;;;;;5.03;3.37;;;;;;;9.11;99.27;101390.25;5186585;28;20061;-78
2022/04/15 03:08:39;;;;;;;9.15;3.63;;;;;;;9.14;98.53;101390.19;5186223;28;20295;-78
2022/04/15 03:11:09;;;;;;;5.50;3.58;;;;;;;9.15;98.98;101395.38;5180856;28;20480;-78
2022/04/15 03:13:40;;;;;;;6.00;3.40;;;;;;;9.18;98.74;101387.47;5187786;28;20507;-78
2022/04/15 03:16:10;;;;;;;5.68;3.25;;;;;;;9.25;99.86;101398.69;5185170;28;20050;-78
2022/04/15 03:18:41;;;;;;;6.20;3.53;;;;;;;9.25;99.60;101393.47;5184787;28;20026;-78
2022/04/15 03:21:11;;;;;;;6.10;3.22;;;;;;;9.19;99.39;101394.47;5184354;28;20021;-78
2022/04/15 03:23:42;;;;;;;6.47;3.35;;;;;;;9.20;100.00;101409.22;5184687;28;20079;-78
2022/04/15 03:26:12;;;;;;;6.55;3.20;;;;;;;9.14;99.83;101401.47;5183778;28;20033;-78
2022/04/15 03:28:44;;;;;;;5.82;3.00;;;;;;;9.19;100.00;101404.00;5184759;28;20104;-78
2022/04/15 03:31:14;;;;;;;5.03;3.22;;;;;;;9.07;100.00;101399.00;5184500;28;20025;-78
2022/04/15 03:33:45;;;;;;;7.22;3.50;;;;;;;8.98;100.00;101411.31;5184703;28;20032;-78
2022/04/15 03:36:15;;;;;;;4.65;2.88;;;;;;;8.89;100.00;101414.91;5190267;28;20565;-79
2022/04/15 03:38:46;;;;;;;6.63;3.83;;;;;;;8.97;100.00;101410.47;5188266;28;20032;-78
2022/04/15 03:41:16;;;;;;;7.35;3.60;;;;;;;8.95;100.00;101414.84;5184208;28;20033;-78
2022/04/15 03:43:46;;;;;;;5.90;3.78;;;;;;;8.93;100.00;101420.97;5191617;28;20030;-78
2022/04/15 03:46:17;;;;;;;6.70;3.57;;;;;;;9.02;100.00;101423.41;5187009;28;20034;-78
2022/04/15 03:48:47;;;;;;;6.15;3.55;;;;;;;9.08;100.00;101418.97;5183980;28;20365;-78
2022/04/15 03:51:17;;;;;;;5.47;3.63;;;;;;;8.88;100.00;101415.81;5183488;28;20029;-78
2022/04/15 03:53:48;;;;;;;6.53;3.97;;;;;;;8.99;100.00;101420.84;5183879;28;20092;-78
2022/04/15 03:56:18;;;;;;;5.72;3.70;;;;;;;8.99;100.00;101416.50;5183667;28;20559;-78
2022/04/15 03:58:48;;;;;;;6.68;3.40;;;;;;;9.11;100.00;101425.88;5183763;28;20483;-78
2022/04/15 04:01:18;;;;;;;8.30;3.70;;;;;;;9.00;100.00;101420.84;5183764;28;20034;-78
2022/04/15 04:03:49;;;;;;;5.57;3.60;;;;;;;8.93;100.00;101432.22;5184034;28;20029;-78
2022/04/15 04:09:25;;;;;;;10.07;4.45;;;;;;;9.08;100.00;101428.53;5095882;26;20052;-79
2022/04/15 04:12:14;;;;;;;7.53;4.22;;;;;;;8.95;100.00;101427.88;5183813;28;20061;-78
2022/04/15 04:19:11;;;;;;;6.60;4.53;;;;;;;8.93;100.00;101434.84;5066598;29;20522;-78
2022/04/15 04:22:28;;;;;;;5.57;4.07;;;;;;;8.95;100.00;101435.72;5065333;29;20040;-78
2022/04/15 04:25:38;;;;;;;6.78;4.75;;;;;;;9.04;100.00;101432.94;5046953;29;20124;-78
2022/04/15 04:28:15;;;;;;;6.97;5.10;;;;;;;9.06;100.00;101431.16;5061497;29;20044;-78
2022/04/15 04:31:35;;;;;;;7.07;4.63;;;;;;;8.93;100.00;101434.84;5104429;29;20039;-77
2022/04/15 04:34:42;;;;;;;7.78;4.65;;;;;;;8.96;100.00;101431.34;5098357;28;20065;-78
2022/04/15 04:38:10;;;;;;;;;;;;;;;;;;;;;
2022/04/15 04:44:45;;;;;;;;;;;;;;;;;;;;;
2022/04/15 04:51:03;;;;;;;10.00;5.05;;;;;;;9.10;100.00;101448.47;5217709;28;20063;-79
2022/04/15 04:53:53;;;;;;;10.02;5.60;;;;;;;8.99;100.00;101463.44;5215683;28;20108;-79
2022/04/15 04:57:44;;;;;;;7.82;5.55;;;;;;;8.89;100.00;101467.06;5218991;28;20578;-79
2022/04/15 05:00:43;;;;;;;;;;;;;;;;;;;;;
2022/04/15 05:03:26;;;;;;;8.30;5.40;;;;;;;8.89;100.00;101476.63;5214536;28;20063;-79
2022/04/15 05:05:57;;;;;;;9.88;6.13;;;;;;;8.78;100.00;101479.41;5205227;28;20036;-79
2022/04/15 05:08:27;;;;;;;7.32;5.88;;;;;;;8.71;100.00;101482.94;5215551;28;20021;-78
2022/04/15 05:11:23;;;;;;;8.50;6.07;;;;;;;8.66;100.00;101486.50;5214866;28;20024;-79
2022/04/15 05:17:14;;;;;;;9.75;6.38;;;;;;;8.76;100.00;101491.56;5216141;28;20056;-79
2022/04/15 05:19:47;;;;;;;9.18;6.25;;;;;;;8.73;100.00;101490.75;5214978;28;20032;-79
2022/04/15 05:22:44;;;;;;;10.15;6.25;;;;;;;8.67;100.00;101501.25;5216660;28;20036;-79
2022/04/15 05:25:15;;;;;;;12.00;6.57;;;;;;;8.63;100.00;101497.84;5207313;28;20491;-79
2022/04/15 05:27:47;;;;;;;10.30;6.53;;;;;;;8.56;100.00;101506.59;5216056;28;20039;-79
2022/04/15 05:31:03;;;;;;;11.05;6.70;;;;;;;8.64;100.00;101502.16;5195657;28;20377;-79
2022/04/15 05:33:34;;;;;;;10.87;7.23;;;;;;;8.61;100.00;101512.63;5206723;28;20492;-80
2022/04/15 05:36:04;;;;;;;10.13;7.50;;;;;;;8.52;100.00;101519.72;5215323;28;20490;-79
2022/04/15 05:38:35;;;;;;;11.07;7.45;;;;;;;8.64;100.00;101514.31;5214933;28;20057;-79
2022/04/15 05:41:06;;;;;;;10.32;6.72;;;;;;;8.57;100.00;101520.50;5214347;28;20029;-79
2022/04/15 05:43:37;;;;;;;9.60;6.32;;;;;;;8.64;100.00;101525.63;5212772;28;20597;-79
2022/04/15 05:46:07;;;;;;;8.43;6.18;;;;;;;8.69;100.00;101520.34;5214899;28;20294;-79
2022/04/15 05:48:38;;;;;;;9.10;5.80;;;;;;;8.70;100.00;101522.09;5212777;28;20052;-79
2022/04/15 05:51:08;;;;;;;9.35;6.30;;;;;;;8.76;100.00;101525.44;5215493;28;20025;-79
2022/04/15 05:53:38;;;;;;;9.77;6.50;;;;;;;8.89;100.00;101519.19;5213545;28;20020;-79
2022/04/15 05:56:09;;;;;;;8.20;5.65;;;;;;;8.88;100.00;101522.69;5214926;28;20033;-79
2022/04/15 05:58:42;;;;;;;10.25;6.30;;;;;;;8.96;100.00;101519.97;5214904;28;20025;-79
2022/04/15 06:01:13;;;;;;;9.10;5.70;;;;;;;8.88;100.00;101527.06;5207092;28;20038;-80
2022/04/15 06:03:43;;;;;;;6.97;5.30;;;;;;;8.79;100.00;101533.25;5213099;28;20544;-79
2022/04/15 06:06:13;;;;;;;10.48;5.97;;;;;;;8.96;100.00;101533.88;5213401;28;20053;-80
2022/04/15 06:08:43;;;;;;;8.48;5.30;;;;;;;9.09;100.00;101530.19;5208961;28;20043;-79
2022/04/15 06:11:14;;;;;;;6.90;4.60;;;;;;;8.90;100.00;101526.13;5205915;28;20031;-80
2022/04/15 06:13:47;;;;;;;6.65;4.65;;;;;;;9.07;100.00;101536.34;5209637;28;20039;-79
2022/04/15 06:16:17;;;;;;;6.35;4.95;;;;;;;9.14;100.00;101536.22;5212311;28;20413;-80
2022/04/15 06:18:48;;;;;;;9.15;4.55;;;;;;;9.16;100.00;101539.69;5216250;28;20025;-79
2022/04/15 06:21:18;;;;;;;7.57;4.32;;;;;;;9.11;100.00;101540.63;5214338;28;20086;-79
2022/04/15 06:23:49;;;;;;;6.70;4.70;;;;;;;9.14;100.00;101531.00;5213581;28;20064;-79
2022/04/15 06:26:19;;;;;;;8.65;5.90;;;;;;;9.19;100.00;101531.81;5213341;28;20033;-79
2022/04/15 06:28:49;;;;;;;7.45;4.70;;;;;;;9.35;100.00;101541.13;5213371;28;20029;-79
2022/04/15 06:31:21;;;;;;;6.80;4.28;;;;;;;9.40;100.00;101539.28;5206064;28;20079;-79
2022/04/15 06:33:52;;;;;;;7.70;4.50;;;;;;;9.38;100.00;101547.16;5212720;28;20052;-80
2022/04/15 06:36:22;;;;;;;9.55;4.53;;;;;;;9.36;100.00;101548.06;5215246;28;20025;-80
2022/04/15 06:38:53;;;;;;;7.00;4.50;;;;;;;9.31;100.00;101547.28;5211629;28;20025;-80
2022/04/15 06:41:23;;;;;;;7.15;4.80;;;;;;;9.38;100.00;101547.16;5214978;28;20025;-80
2022/04/15 06:43:53;;;;;;;7.40;4.55;;;;;;;9.30;100.00;101550.78;5212283;28;20299;-80
2022/04/15 06:46:24;;;;;;;7.68;4.55;;;;;;;9.37;100.00;101553.28;5213557;28;20457;-80
2022/04/15 06:48:54;;;;;;;7.28;4.38;;;;;;;9.28;100.00;101560.38;5213395;28;20029;-80
2022/04/15 06:51:27;;;;;;;9.15;4.75;;;;;;;9.42;100.00;101545.34;5214498;28;20059;-80
2022/04/15 06:53:57;;;;;;;11.45;6.00;;;;;;;9.51;100.00;101553.91;5217486;28;20104;-80
2022/04/15 06:56:27;;;;;;;10.13;6.65;;;;;;;9.76;100.00;101536.97;5218652;28;20112;-80
2022/04/15 06:58:58;;;;;;;9.25;5.90;;;;;;;9.74;100.00;101551.78;5215438;28;20025;-80
2022/04/15 07:01:29;;;;;;;11.75;7.03;;;;;;;9.55;100.00;101555.59;5212971;28;20021;-80
2022/04/15 07:03:59;;;;;;;8.63;5.65;;;;;;;9.82;100.00;101560.34;5212782;28;20029;-80
2022/04/15 07:06:29;;;;;;;8.90;5.60;;;;;;;9.92;100.00;101563.66;5218558;28;20023;-80
2022/04/15 07:09:00;;;;;;;9.35;5.53;;;;;;;9.95;100.00;101563.59;5217755;28;20136;-80
2022/04/15 07:11:30;;;;;;;10.30;5.70;;;;;;;10.08;100.00;101562.53;5218548;28;20032;-81
2022/04/15 07:14:00;;;;;;;14.60;5.95;;;;;;;9.98;100.00;101566.19;5218668;28;20036;-80
2022/04/15 07:16:31;;;;;;;9.48;6.07;;;;;;;9.89;100.00;101569.81;5219321;28;20024;-80
2022/04/15 07:19:04;;;;;;;10.73;6.32;;;;;;;9.86;100.00;101567.22;5215640;28;20029;-80
2022/04/15 07:21:35;;;;;;;11.57;6.28;;;;;;;10.04;100.00;101574.81;5219179;28;20050;-80
2022/04/15 07:24:06;;;;;;;11.57;5.88;;;;;;;10.12;100.00;101574.66;5220023;28;20491;-80
2022/04/15 07:26:36;;;;;;;11.25;6.45;;;;;;;10.20;100.00;101576.25;5216726;28;20025;-80
2022/04/15 07:29:07;;;;;;;9.68;5.97;;;;;;;10.24;100.00;101574.44;5220015;28;20034;-80
2022/04/15 07:31:38;;;;;;;12.30;6.35;;;;;;;10.12;100.00;101579.88;5217752;28;20025;-80
2022/04/15 07:34:09;;;;;;;9.50;6.20;;;;;;;9.95;100.00;101579.28;5213762;28;20052;-79
2022/04/15 07:39:11;;;;;;;9.17;6.03;;;;;;;9.80;100.00;101588.22;5213212;28;20032;-80
2022/04/15 07:41:42;;;;;;;12.23;6.25;;;;;;;10.02;100.00;101592.22;5208486;28;21255;-80
2022/04/15 07:44:13;;;;;;;9.38;6.35;;;;;;;10.08;100.00;101591.28;5214723;28;20049;-80
2022/04/15 07:46:44;;;;;;;10.25;6.90;;;;;;;10.12;100.00;101598.16;5218158;28;20059;-80
2022/04/15 07:49:15;;;;;;;11.48;7.00;;;;;;;10.25;100.00;101604.91;5216202;28;20121;-80
2022/04/15 07:51:45;;;;;;;9.75;6.35;;;;;;;10.14;100.00;101602.47;5219663;28;20053;-80
2022/04/15 07:54:16;;;;;;;9.63;7.03;;;;;;;10.19;100.00;101602.41;5216912;28;20021;-80
2022/04/15 07:56:46;;;;;;;10.48;6.30;;;;;;;9.93;100.00;101612.38;5219401;28;20025;-80
2022/04/15 07:59:18;;;;;;;10.13;6.72;;;;;;;9.89;100.00;101615.94;5216584;28;20082;-80
2022/04/15 08:01:53;;;;;;;9.55;6.15;;;;;;;9.96;100.00;101610.59;5211595;28;20029;-80
2022/04/15 08:04:23;;;;;;;8.80;6.00;;;;;;;10.22;100.00;101607.56;5214007;28;20025;-80
2022/04/15 08:06:53;;;;;;;11.55;6.05;;;;;;;10.41;100.00;101608.97;5216233;28;20036;-80
2022/04/15 08:09:23;;;;;;;10.02;6.15;;;;;;;10.58;100.00;101612.13;5219223;28;20020;-80
2022/04/15 08:11:54;;;;;;;8.00;5.20;;;;;;;10.40;100.00;101615.97;5215462;28;20029;-80
2022/04/15 08:14:24;;;;;;;7.05;5.07;;;;;;;10.47;100.00;101619.28;5217169;28;20118;-80
2022/04/15 08:16:54;;;;;;;9.48;4.93;;;;;;;10.33;100.00;101616.94;5223456;28;20021;-80
2022/04/15 08:19:25;;;;;;;7.50;4.75;;;;;;;10.47;100.00;101620.16;5213220;28;20017;-80
2022/04/15 08:21:55;;;;;;;7.80;4.28;;;;;;;10.56;99.95;101627.84;5216635;28;20090;-80
2022/04/15 08:24:26;;;;;;;7.53;4.53;;;;;;;10.96;99.19;101620.94;5215149;28;20025;-80
2022/04/15 08:26:57;;;;;;;8.02;4.10;;;;;;;10.97;98.24;101624.41;5217591;28;20414;-80
2022/04/15 08:29:31;;;;;;;8.45;4.47;;;;;;;11.18;97.19;101623.09;5215763;28;20033;-80
2022/04/15 08:32:02;;;;;;;6.75;3.92;;;;;;;11.62;95.65;101620.34;5210890;28;20057;-80
2022/04/15 08:34:32;;;;;;;6.43;3.63;;;;;;;11.51;92.42;101622.34;5214148;28;20064;-80
2022/04/15 08:37:03;;;;;;;9.43;3.97;;;;;;;11.65;91.53;101624.69;5215491;28;20037;-80
2022/04/15 08:39:34;;;;;;;7.18;3.60;;;;;;;11.71;92.84;101624.53;5215674;28;20025;-80
2022/04/15 08:42:09;;;;;;;4.75;3.00;;;;;;;11.64;92.16;101630.81;5210636;28;20123;-80
2022/04/15 08:44:42;;;;;;;8.13;3.70;;;;;;;11.58;92.83;101633.59;5209362;28;20537;-80
2022/04/15 08:47:12;;;;;;;5.35;3.30;;;;;;;11.20;93.61;101650.09;5209289;28;20448;-80
2022/04/15 08:49:43;;;;;;;6.20;3.30;;;;;;;10.97;94.91;101646.22;5211656;28;20097;-80
2022/04/15 08:52:18;;;;;;;6.68;3.88;;;;;;;10.94;95.91;101643.66;5209321;28;20506;-80
2022/04/15 08:54:51;;;;;;;7.40;3.78;;;;;;;10.97;96.78;101651.44;5208526;28;20021;-80
2022/04/15 09:11:51;;;;;;;7.05;3.75;;;;;;;10.82;97.85;101675.28;5131824;28;20563;-79
2022/04/15 09:14:21;;;;;;;8.02;3.63;;;;;;;10.75;96.19;101685.88;5127837;28;20058;-81
2022/04/15 09:16:52;;;;;;;7.03;4.05;;;;;;;10.96;96.59;101682.84;5172919;28;20249;-81
2022/04/15 09:19:23;;;;;;;6.25;3.95;;;;;;;11.03;97.54;101680.09;5173036;28;20022;-79
2022/04/15 09:21:56;;;;;;;8.27;4.18;;;;;;;10.93;95.54;101677.69;5173698;28;20071;-79
2022/04/15 09:24:30;;;;;;;6.47;4.45;;;;;;;10.93;97.56;101678.56;5170920;28;20052;-81
2022/04/15 09:27:04;;;;;;;9.60;5.10;;;;;;;10.97;96.21;101693.28;5191706;28;20017;-79
2022/04/15 09:29:39;;;;;;;11.85;5.30;;;;;;;11.06;95.54;101680.00;5191091;28;20412;-81
2022/04/15 09:32:14;;;;;;;14.30;7.15;;;;;;;11.43;93.85;101684.47;5162004;28;20487;-81
2022/04/15 09:34:59;;;;;;;9.65;4.47;;;;;;;12.40;92.69;101688.31;5169180;28;20037;-81
2022/04/15 09:37:34;;;;;;;8.88;4.93;;;;;;;12.35;91.08;101674.47;5163725;28;20484;-81
2022/04/15 09:40:15;;;;;;;7.20;4.80;;;;;;;12.66;88.86;101684.13;5161698;28;20021;-82
2022/04/15 09:42:52;;;;;;;7.45;4.40;;;;;;;12.77;87.99;101684.72;5180297;28;20133;-81
2022/04/15 09:45:24;;;;;;;13.95;6.93;;;;;;;12.80;88.62;101691.66;5187456;28;20030;-81
2022/04/15 09:48:02;;;;;;;9.02;5.82;;;;;;;12.57;87.27;101684.38;5179613;28;20033;-81
2022/04/15 09:50:37;;;;;;;6.20;4.00;;;;;;;12.14;88.25;101682.88;5166592;28;20022;-81
2022/04/15 09:53:17;;;;;;;6.53;3.92;;;;;;;12.25;89.44;101673.84;5169368;28;20244;-81
2022/04/15 09:55:50;;;;;;;6.30;4.07;;;;;;;12.45;88.47;101678.59;5164634;28;20061;-82
2022/04/15 09:58:28;;;;;;;7.57;3.90;;;;;;;12.57;87.74;101684.38;5171910;28;20480;-81
2022/04/15 10:01:02;;;;;;;7.10;4.40;;;;;;;13.07;87.76;101679.50;5170522;28;20332;-80
2022/04/15 10:03:35;;;;;;;6.47;3.65;;;;;;;13.38;85.93;101687.38;5168417;28;20021;-80
2022/04/15 10:06:05;;;;;;;5.82;3.30;;;;;;;13.18;85.34;101680.06;5182463;28;20539;-81
2022/04/15 10:08:39;;;;;;;6.28;3.60;;;;;;;12.90;84.49;101678.25;5173231;28;20112;-79
2022/04/15 10:11:09;;;;;;;6.63;4.30;;;;;;;13.20;86.64;101685.28;5175273;28;20018;-81
2022/04/15 10:13:44;;;;;;;5.90;3.92;;;;;;;12.96;85.90;101696.47;5187621;28;20044;-81
2022/04/15 10:16:15;;;;;;;5.70;3.73;;;;;;;12.73;86.33;101690.94;5180568;28;20037;-79
2022/04/15 10:18:46;;;;;;;12.63;6.57;;;;;;;13.02;86.83;101683.16;5191270;28;20383;-81
2022/04/15 10:21:17;;;;;;;11.07;6.47;;;;;;;13.09;86.41;101684.72;5179760;28;20026;-81
2022/04/15 10:23:48;;;;;;;8.82;6.10;;;;;;;13.16;84.50;101688.88;5184108;28;20029;-81
2022/04/15 10:26:18;;;;;;;5.70;3.42;;;;;;;13.03;86.00;101684.91;5176181;28;20041;-81
2022/04/15 10:28:49;;;;;;;7.60;4.68;;;;;;;12.99;85.06;101686.75;5193190;28;20708;-82
2022/04/15 10:31:19;;;;;;;5.93;3.58;;;;;;;13.03;85.96;101690.16;5168168;28;20034;-81
2022/04/15 10:33:49;;;;;;;8.90;4.38;;;;;;;12.74;85.82;101697.91;5182692;28;20449;-79
2022/04/15 10:36:22;;;;;;;6.10;3.80;;;;;;;12.74;86.34;101697.91;5171554;28;20033;-80
2022/04/15 10:39:01;;;;;;;8.88;4.28;;;;;;;12.70;86.32;101696.28;5169661;28;20021;-80
2022/04/15 10:41:41;;;;;;;4.60;2.90;;;;;;;12.62;86.42;101698.22;5188021;28;20057;-79
2022/04/15 10:44:39;;;;;;;5.90;3.85;;;;;;;12.31;86.88;101707.75;5174857;28;20034;-81
2022/04/15 10:47:24;;;;;;;6.22;4.32;;;;;;;12.34;87.29;101712.06;5189772;28;20519;-80
2022/04/15 10:50:00;;;;;;;4.25;2.83;;;;;;;12.40;88.74;101712.78;5177057;28;20096;-80
2022/04/15 10:52:35;;;;;;;5.78;3.70;;;;;;;12.55;88.88;101708.91;5180227;28;20110;-80
2022/04/15 10:55:07;;;;;;;6.22;3.40;;;;;;;12.68;86.83;101708.59;5176286;28;20029;-80
2022/04/15 10:57:43;;;;;;;7.10;3.30;;;;;;;12.62;86.42;101702.63;5187874;28;20514;-80
2022/04/15 11:03:25;;;;;;;6.85;3.97;;;;;;;13.18;85.29;101703.69;5196692;28;20045;-80
2022/04/15 11:06:00;;;;;;;5.13;3.33;;;;;;;13.19;85.56;101707.16;5187194;28;20088;-80
2022/04/15 11:08:46;;;;;;;5.20;3.40;;;;;;;12.94;85.20;101703.53;5182318;28;20036;-80
2022/04/15 11:11:18;;;;;;;;;;;;;;;13.02;87.28;101704.16;5199125;28;20100;-79
2022/04/15 11:13:49;;;;;;;6.25;3.65;;;;;;;12.96;86.26;101706.97;5167713;28;20545;-80
2022/04/15 11:16:21;;;;;;;4.40;3.20;;;;;;;12.91;86.21;101711.44;5166886;28;20058;-80
2022/04/15 11:18:53;;;;;;;6.35;3.00;;;;;;;12.98;86.00;101713.03;5186898;28;20832;-80
2022/04/15 11:21:24;;;;;;;6.53;3.55;;;;;;;12.80;88.21;101713.47;5166420;28;20030;-80
2022/04/15 11:23:56;;;;;;;6.53;3.13;;;;;;;12.85;87.53;101721.25;5193516;28;20045;-80
2022/04/15 11:26:28;;;;;;;5.43;3.42;;;;;;;12.85;88.80;101716.84;5176487;28;20103;-80
2022/04/15 11:29:01;;;;;;;9.05;3.60;;;;;;;12.87;88.45;101719.44;5199100;28;20609;-81
2022/04/15 11:31:31;;;;;;;6.20;3.28;;;;;;;12.77;88.03;101718.81;5173518;28;20038;-80
2022/04/15 11:34:06;;;;;;;7.50;3.63;;;;;;;12.82;87.45;101713.47;5173935;28;20048;-80
2022/04/15 11:36:39;;;;;;;7.32;3.92;;;;;;;12.73;88.08;101711.06;5175831;28;20276;-81
2022/04/15 11:39:12;;;;;;;7.25;4.28;;;;;;;12.85;88.40;101711.59;5188530;28;20030;-81
2022/04/15 11:41:46;;;;;;;9.07;4.70;;;;;;;13.06;86.98;101717.16;5175641;28;20030;-80
2022/04/15 11:44:17;;;;;;;8.45;4.53;;;;;;;13.21;86.88;101710.63;5172847;28;20029;-81
2022/04/15 11:46:52;;;;;;;8.88;4.50;;;;;;;13.33;87.04;101713.78;5184958;28;20427;-81
2022/04/15 11:49:27;;;;;;;7.75;4.55;;;;;;;13.28;87.46;101717.44;5163601;28;20041;-81
2022/04/15 11:52:00;;;;;;;10.50;4.83;;;;;;;13.33;86.55;101710.28;5182229;28;20744;-81
2022/04/15 11:54:35;;;;;;;8.20;4.43;;;;;;;12.89;85.51;101713.25;5184012;28;20026;-82
2022/04/15 11:57:06;;;;;;;8.23;4.07;;;;;;;13.37;84.30;101719.81;5165355;28;20121;-80
2022/04/15 11:59:41;;;;;;;5.97;3.63;;;;;;;13.40;84.83;101724.97;5172038;28;20032;-81
2022/04/15 12:02:14;;;;;;;6.72;4.03;;;;;;;13.45;84.52;101715.19;5166173;28;20030;-80
2022/04/15 12:04:52;;;;;;;7.45;3.75;;;;;;;13.72;85.15;101714.38;5156301;28;20028;-80
2022/04/15 12:07:24;;;;;;;8.75;3.88;;;;;;;13.54;84.45;101718.41;5158263;28;20798;-81
2022/04/15 12:09:54;;;;;;;5.97;3.60;;;;;;;13.44;83.74;101719.56;5166919;28;20021;-80
2022/04/15 12:12:24;;;;;;;7.70;3.72;;;;;;;13.24;85.14;101723.69;5159254;28;20034;-80
2022/04/15 12:14:55;;;;;;;7.43;4.15;;;;;;;13.05;86.92;101731.19;5181001;28;20054;-80
2022/04/15 12:17:25;;;;;;;9.10;4.15;;;;;;;12.97;86.93;101726.19;5161961;28;20034;-80
2022/04/15 12:19:56;;;;;;;11.13;4.43;;;;;;;13.31;87.54;101722.59;5181414;28;20014;-80
2022/04/15 12:22:26;;;;;;;7.95;4.00;;;;;;;13.20;85.06;101720.28;5164515;28;20073;-81
2022/04/15 12:25:19;;;;;;;7.75;4.20;;;;;;;13.55;85.33;101727.16;5180164;28;20089;-81
2022/04/15 12:27:53;;;;;;;9.52;4.88;;;;;;;13.51;86.08;101720.25;5181641;28;20049;-81
2022/04/15 12:30:39;;;;;;;8.75;4.20;;;;;;;13.46;85.47;101723.03;5186420;28;20064;-82
2022/04/15 12:33:13;;;;;;;12.98;4.18;;;;;;;13.45;84.83;101728.31;5186779;28;20510;-81
2022/04/15 12:36:01;;;;;;;8.38;4.10;;;;;;;13.47;84.60;101727.38;5190750;28;20029;-80